Time;durP1;ratioP1;P1;durP2;ratioP2;P2;SDS_P1;SDS_P2;PMS_P1;PMS_P2;Temp;Humidity;BMP_temperature;BMP_pressure;BME280_temperature;BME280_humidity;BME280_pressure;Samples;Min_cycle;Max_cycle;Signal;HPM_P1;HPM_P2
2023/12/30 00:02:17;;;;;;;1.27;0.70;;;7.90;99.90;;;;;;5091431;28;20462;-64
2023/12/30 00:04:44;;;;;;;0.83;0.63;;;7.90;99.90;;;;;;5090613;28;20501;-64
2023/12/30 00:07:11;;;;;;;0.90;0.70;;;8.00;99.90;;;;;;5089153;28;20511;-63
2023/12/30 00:09:38;;;;;;;3.33;0.70;;;8.00;99.90;;;;;;5090358;28;20511;-64
2023/12/30 00:12:07;;;;;;;1.33;0.60;;;8.00;99.90;;;;;;5090220;28;20513;-63
2023/12/30 00:14:36;;;;;;;1.90;0.80;;;8.00;99.90;;;;;;5090303;28;20465;-64
2023/12/30 00:17:02;;;;;;;1.17;0.57;;;8.00;99.90;;;;;;5097503;28;20497;-64
2023/12/30 00:19:29;;;;;;;1.07;0.80;;;8.10;99.90;;;;;;5095890;28;20426;-65
2023/12/30 00:21:56;;;;;;;1.90;1.43;;;8.10;99.90;;;;;;5093895;28;20768;-63
2023/12/30 00:24:23;;;;;;;0.80;0.60;;;8.10;99.90;;;;;;5090489;28;20444;-63
2023/12/30 00:26:51;;;;;;;0.90;0.70;;;8.10;99.90;;;;;;5089951;28;20478;-64
2023/12/30 00:29:19;;;;;;;0.93;0.60;;;8.20;99.90;;;;;;5089028;28;20577;-64
2023/12/30 00:31:46;;;;;;;1.43;0.80;;;8.20;99.90;;;;;;5087601;28;20464;-64
2023/12/30 00:34:13;;;;;;;1.17;0.80;;;8.20;99.90;;;;;;5081351;28;20537;-63
2023/12/30 00:36:43;;;;;;;1.17;0.70;;;8.30;99.90;;;;;;5081771;28;20469;-66
2023/12/30 00:39:10;;;;;;;0.90;0.70;;;8.30;99.90;;;;;;5079582;28;20429;-65
2023/12/30 00:41:37;;;;;;;0.97;0.67;;;8.30;99.90;;;;;;5078380;28;20997;-63
2023/12/30 00:44:04;;;;;;;1.30;0.90;;;8.40;99.90;;;;;;5076007;28;20541;-63
2023/12/30 00:46:32;;;;;;;5.73;0.90;;;8.40;99.90;;;;;;5075956;28;20569;-64
2023/12/30 00:48:59;;;;;;;2.10;1.00;;;8.50;99.90;;;;;;5084283;28;20462;-64
2023/12/30 00:51:28;;;;;;;1.20;0.60;;;8.60;99.90;;;;;;5095056;28;20462;-64
2023/12/30 00:53:55;;;;;;;1.00;0.90;;;8.60;99.90;;;;;;5095122;28;20458;-63
2023/12/30 00:56:22;;;;;;;5.43;2.30;;;8.60;99.90;;;;;;5096867;28;20508;-65
2023/12/30 00:58:49;;;;;;;2.00;1.23;;;8.60;99.90;;;;;;5096330;28;20505;-65
2023/12/30 01:01:17;;;;;;;2.03;1.30;;;8.60;99.90;;;;;;5096402;28;20454;-65
2023/12/30 01:03:48;;;;;;;1.50;1.07;;;8.60;99.90;;;;;;5095292;28;20436;-65
2023/12/30 01:06:15;;;;;;;2.80;1.37;;;8.60;99.90;;;;;;5095372;28;20485;-64
2023/12/30 01:08:41;;;;;;;1.37;1.00;;;8.70;99.90;;;;;;5088923;28;20905;-64
2023/12/30 01:11:08;;;;;;;0.90;0.70;;;8.70;99.90;;;;;;5075725;28;21034;-64
2023/12/30 01:13:35;;;;;;;6.20;2.17;;;8.80;99.90;;;;;;5075736;28;20445;-65
2023/12/30 01:16:05;;;;;;;1.47;1.10;;;8.70;99.90;;;;;;5075556;28;20566;-65
2023/12/30 01:18:32;;;;;;;1.80;1.20;;;8.70;99.90;;;;;;5075687;28;20469;-63
2023/12/30 01:21:00;;;;;;;2.00;1.00;;;8.70;99.90;;;;;;5074992;28;20469;-65
2023/12/30 01:23:28;;;;;;;3.60;0.90;;;8.70;99.90;;;;;;5075265;28;20484;-63
2023/12/30 01:25:55;;;;;;;1.27;1.00;;;8.70;99.90;;;;;;5075167;28;20528;-64
2023/12/30 01:28:22;;;;;;;1.37;0.80;;;8.60;99.90;;;;;;5075030;28;21003;-63
2023/12/30 01:30:49;;;;;;;1.33;0.73;;;8.60;99.90;;;;;;5074801;28;20986;-63
2023/12/30 01:33:16;;;;;;;1.77;0.90;;;8.50;99.90;;;;;;5075279;28;20846;-65
2023/12/30 01:35:43;;;;;;;1.00;0.80;;;8.50;99.90;;;;;;5074804;28;20564;-64
2023/12/30 01:38:11;;;;;;;1.20;0.77;;;8.50;99.90;;;;;;5074988;28;20434;-65
2023/12/30 01:40:38;;;;;;;1.30;0.80;;;8.50;99.90;;;;;;5075107;28;20520;-63
2023/12/30 01:43:05;;;;;;;2.87;1.00;;;8.50;99.90;;;;;;5075182;28;20826;-65
2023/12/30 01:45:32;;;;;;;1.17;1.07;;;8.50;99.90;;;;;;5074943;28;20477;-64
2023/12/30 01:47:59;;;;;;;5.83;1.00;;;8.50;99.90;;;;;;5075019;28;20503;-64
2023/12/30 01:50:27;;;;;;;3.40;1.00;;;8.50;99.90;;;;;;5074646;28;20931;-63
2023/12/30 01:52:54;;;;;;;1.03;0.90;;;8.60;99.90;;;;;;5075044;28;20502;-64
2023/12/30 01:55:23;;;;;;;1.60;1.00;;;8.60;99.90;;;;;;5076329;28;20474;-64
2023/12/30 01:57:50;;;;;;;1.73;1.13;;;8.60;99.90;;;;;;5079206;28;20533;-64
2023/12/30 02:00:20;;;;;;;2.77;1.20;;;8.60;99.90;;;;;;5095293;28;20448;-65
2023/12/30 02:02:48;;;;;;;1.30;0.90;;;8.60;99.90;;;;;;5095748;28;20509;-64
2023/12/30 02:05:16;;;;;;;2.70;1.30;;;8.60;99.90;;;;;;5095493;28;20446;-61
2023/12/30 02:07:45;;;;;;;4.00;1.50;;;8.60;99.90;;;;;;5095805;28;20509;-62
2023/12/30 02:10:13;;;;;;;1.77;1.10;;;8.60;99.90;;;;;;5095798;28;20444;-65
2023/12/30 02:12:41;;;;;;;4.50;0.90;;;8.50;99.90;;;;;;5095665;28;20479;-65
2023/12/30 02:15:14;;;;;;;2.30;1.00;;;8.50;99.90;;;;;;5095681;28;21005;-65
2023/12/30 02:17:41;;;;;;;1.43;1.20;;;8.50;99.90;;;;;;5095971;28;20480;-64
2023/12/30 02:20:09;;;;;;;0.97;0.77;;;8.50;99.90;;;;;;5095118;28;20481;-66
2023/12/30 02:22:36;;;;;;;1.50;0.90;;;8.50;99.90;;;;;;5095296;28;20473;-64
2023/12/30 02:25:05;;;;;;;3.27;1.20;;;8.40;99.90;;;;;;5095101;28;20500;-64
2023/12/30 02:27:32;;;;;;;1.70;0.93;;;8.40;99.90;;;;;;5094992;28;20470;-64
2023/12/30 02:29:58;;;;;;;1.77;0.93;;;8.40;99.90;;;;;;5095735;28;20454;-64
2023/12/30 02:32:27;;;;;;;2.20;0.87;;;8.50;99.90;;;;;;5094584;28;20469;-64
2023/12/30 02:34:54;;;;;;;2.13;0.93;;;8.40;99.90;;;;;;5094398;28;20460;-64
2023/12/30 02:37:21;;;;;;;2.17;1.00;;;8.40;99.90;;;;;;5094461;28;20448;-65
2023/12/30 02:39:48;;;;;;;1.67;0.90;;;8.50;99.90;;;;;;5095144;28;20448;-64
2023/12/30 02:42:16;;;;;;;1.73;1.17;;;8.50;99.90;;;;;;5094304;28;20473;-65
2023/12/30 02:44:43;;;;;;;3.90;0.93;;;8.50;99.90;;;;;;5097024;28;20455;-64
2023/12/30 02:47:09;;;;;;;1.20;0.80;;;8.50;99.90;;;;;;5097637;28;20504;-64
2023/12/30 02:49:36;;;;;;;1.00;0.77;;;8.50;99.90;;;;;;5087617;28;20968;-63
2023/12/30 02:52:03;;;;;;;1.23;0.80;;;8.50;99.90;;;;;;5083418;28;20502;-64
2023/12/30 02:54:30;;;;;;;1.47;0.93;;;8.50;99.90;;;;;;5082354;28;20456;-65
2023/12/30 02:56:57;;;;;;;2.57;1.00;;;8.50;99.90;;;;;;5080489;28;20521;-63
2023/12/30 02:59:25;;;;;;;1.73;0.90;;;8.40;99.90;;;;;;5079124;28;20441;-64
2023/12/30 03:01:52;;;;;;;1.27;1.03;;;8.40;99.90;;;;;;5077890;28;20555;-65
2023/12/30 03:04:19;;;;;;;2.27;0.97;;;8.40;99.90;;;;;;5077759;28;20513;-63
2023/12/30 03:06:46;;;;;;;2.50;0.70;;;8.40;99.90;;;;;;5077521;28;20568;-64
2023/12/30 03:09:13;;;;;;;2.40;0.80;;;8.30;99.90;;;;;;5077887;28;20812;-64
2023/12/30 03:11:40;;;;;;;1.97;0.80;;;8.30;99.90;;;;;;5077508;28;20494;-65
2023/12/30 03:14:07;;;;;;;1.00;0.80;;;8.30;99.90;;;;;;5077841;28;20422;-64
2023/12/30 03:16:35;;;;;;;1.10;0.60;;;8.40;99.90;;;;;;5077801;28;20493;-65
2023/12/30 03:19:02;;;;;;;1.43;0.80;;;8.40;99.90;;;;;;5087095;28;20480;-63
2023/12/30 03:21:29;;;;;;;1.40;0.80;;;8.40;99.90;;;;;;5099144;28;20460;-65
2023/12/30 03:23:56;;;;;;;1.40;0.90;;;8.40;99.90;;;;;;5099439;28;20468;-61
2023/12/30 03:26:23;;;;;;;1.30;0.83;;;8.40;99.90;;;;;;5100463;28;20427;-64
2023/12/30 03:28:50;;;;;;;11.23;0.80;;;8.30;99.90;;;;;;5100882;28;20480;-62
2023/12/30 03:31:21;;;;;;;0.90;0.73;;;8.30;99.90;;;;;;5101391;28;20440;-64
2023/12/30 03:33:50;;;;;;;2.73;0.80;;;8.30;99.90;;;;;;5101393;28;20409;-59
2023/12/30 03:36:17;;;;;;;4.53;0.87;;;8.30;99.90;;;;;;5101324;28;20430;-59
2023/12/30 03:38:43;;;;;;;7.13;1.20;;;8.30;99.90;;;;;;5101293;28;20429;-64
2023/12/30 03:41:10;;;;;;;1.20;0.83;;;8.30;99.90;;;;;;5101132;28;20413;-63
2023/12/30 03:43:40;;;;;;;1.63;0.80;;;8.30;99.90;;;;;;5101147;28;20432;-63
2023/12/30 03:46:07;;;;;;;4.27;0.93;;;8.30;99.90;;;;;;5101031;28;20409;-63
2023/12/30 03:48:36;;;;;;;1.30;0.80;;;8.30;99.90;;;;;;5100959;28;20475;-63
2023/12/30 03:51:05;;;;;;;0.90;0.70;;;8.30;99.90;;;;;;5100977;28;20442;-63
2023/12/30 03:53:35;;;;;;;2.03;0.90;;;8.20;99.90;;;;;;5100847;28;20509;-63
2023/12/30 03:56:02;;;;;;;0.90;0.70;;;8.20;99.90;;;;;;5100421;28;20441;-63
2023/12/30 03:58:29;;;;;;;2.60;1.17;;;8.20;99.90;;;;;;5100772;28;20449;-64
2023/12/30 04:00:56;;;;;;;0.90;0.70;;;8.20;99.90;;;;;;5100806;28;20445;-63
2023/12/30 04:03:26;;;;;;;2.17;0.80;;;8.20;99.90;;;;;;5100648;28;20441;-62
2023/12/30 04:05:52;;;;;;;1.17;0.90;;;8.20;99.90;;;;;;5100512;28;20433;-59
2023/12/30 04:08:23;;;;;;;1.27;0.80;;;8.20;99.90;;;;;;5100498;28;20488;-62
2023/12/30 04:10:50;;;;;;;1.97;0.80;;;8.20;99.90;;;;;;5100534;28;20409;-63
2023/12/30 04:13:17;;;;;;;2.60;0.87;;;8.20;99.90;;;;;;5100394;28;20446;-62
2023/12/30 04:15:44;;;;;;;0.90;0.73;;;8.20;99.90;;;;;;5100469;28;20452;-63
2023/12/30 04:18:11;;;;;;;1.00;0.70;;;8.20;99.90;;;;;;5100242;28;20438;-61
2023/12/30 04:20:38;;;;;;;1.00;0.80;;;8.20;99.90;;;;;;5100346;28;20433;-62
2023/12/30 04:23:05;;;;;;;2.60;1.00;;;8.20;99.90;;;;;;5100406;28;20448;-62
2023/12/30 04:25:34;;;;;;;1.20;0.90;;;8.10;99.90;;;;;;5099111;28;20436;-64
2023/12/30 04:28:04;;;;;;;1.00;0.80;;;8.10;99.90;;;;;;5096924;28;20492;-64
2023/12/30 04:30:30;;;;;;;1.70;0.97;;;8.10;99.90;;;;;;5097332;28;20421;-64
2023/12/30 04:32:57;;;;;;;2.30;0.73;;;8.00;99.90;;;;;;5096830;28;20484;-64
2023/12/30 04:35:24;;;;;;;1.37;0.70;;;8.00;99.90;;;;;;5097115;28;20453;-64
2023/12/30 04:37:51;;;;;;;2.90;0.70;;;8.00;99.90;;;;;;5096240;28;20518;-64
2023/12/30 04:40:18;;;;;;;1.00;0.63;;;8.00;99.90;;;;;;5096525;28;20534;-64
2023/12/30 04:42:46;;;;;;;1.10;0.60;;;8.00;99.90;;;;;;5095856;28;20435;-65
2023/12/30 04:45:13;;;;;;;1.47;1.23;;;7.90;99.90;;;;;;5096539;28;20473;-65
2023/12/30 04:47:42;;;;;;;1.03;0.60;;;7.90;99.90;;;;;;5097186;28;20489;-64
2023/12/30 04:50:09;;;;;;;1.00;0.60;;;7.80;99.90;;;;;;5096139;28;20480;-63
2023/12/30 04:52:36;;;;;;;3.13;0.70;;;7.80;99.90;;;;;;5096471;28;20446;-64
2023/12/30 04:55:03;;;;;;;1.10;0.60;;;7.80;99.90;;;;;;5096550;28;20466;-64
2023/12/30 04:57:30;;;;;;;1.23;1.13;;;7.80;99.90;;;;;;5096574;28;20437;-64
2023/12/30 04:59:58;;;;;;;2.23;0.70;;;7.70;99.90;;;;;;5090659;28;20470;-65
2023/12/30 05:02:25;;;;;;;0.90;0.60;;;7.60;99.90;;;;;;5089833;28;20474;-65
2023/12/30 05:04:53;;;;;;;1.23;0.67;;;7.60;99.90;;;;;;5089950;28;20459;-64
2023/12/30 05:07:19;;;;;;;0.90;0.77;;;7.60;99.90;;;;;;5088897;28;20811;-64
2023/12/30 05:09:46;;;;;;;1.10;0.70;;;7.60;99.90;;;;;;5089957;28;20508;-65
2023/12/30 05:12:14;;;;;;;1.83;0.70;;;7.60;99.90;;;;;;5089710;28;20776;-64
2023/12/30 05:14:40;;;;;;;1.10;0.70;;;7.60;99.90;;;;;;5088976;28;20941;-63
2023/12/30 05:17:09;;;;;;;0.90;0.70;;;7.50;99.90;;;;;;5089224;28;20485;-65
2023/12/30 05:19:36;;;;;;;1.53;0.80;;;7.50;99.90;;;;;;5089870;28;20469;-64
2023/12/30 05:22:04;;;;;;;3.43;0.90;;;7.50;99.90;;;;;;5089677;28;20948;-65
2023/12/30 05:24:31;;;;;;;1.10;0.60;;;7.60;99.90;;;;;;5089625;28;20936;-65
2023/12/30 05:26:58;;;;;;;1.93;0.97;;;7.60;99.90;;;;;;5081305;28;20862;-65
2023/12/30 05:29:25;;;;;;;1.00;0.80;;;7.60;99.90;;;;;;5081015;28;20488;-65
2023/12/30 05:31:52;;;;;;;0.80;0.50;;;7.60;99.90;;;;;;5081204;28;20535;-64
2023/12/30 05:34:20;;;;;;;1.40;1.00;;;7.70;99.90;;;;;;5080862;28;20516;-64
2023/12/30 05:36:47;;;;;;;1.73;0.80;;;7.60;99.90;;;;;;5081023;28;20488;-64
2023/12/30 05:39:16;;;;;;;2.37;0.80;;;7.60;99.90;;;;;;5084044;28;20483;-65
2023/12/30 05:41:43;;;;;;;2.10;0.80;;;7.60;99.90;;;;;;5086827;28;20445;-64
2023/12/30 05:44:09;;;;;;;2.33;1.10;;;7.60;99.90;;;;;;5087264;28;20461;-64
2023/12/30 05:46:36;;;;;;;3.13;2.07;;;7.60;99.90;;;;;;5088843;28;20478;-63
2023/12/30 05:49:03;;;;;;;8.53;0.90;;;7.60;99.90;;;;;;5092774;28;20484;-64
2023/12/30 05:51:31;;;;;;;1.17;0.97;;;7.60;99.90;;;;;;5095837;28;20465;-65
2023/12/30 05:53:59;;;;;;;2.23;0.90;;;7.60;99.90;;;;;;5095208;28;20960;-65
2023/12/30 05:56:27;;;;;;;2.17;0.67;;;7.60;99.90;;;;;;5095403;28;20447;-64
2023/12/30 05:58:55;;;;;;;6.40;1.67;;;7.50;99.90;;;;;;5095228;28;20444;-64
2023/12/30 06:01:21;;;;;;;0.90;0.60;;;7.50;99.90;;;;;;5095764;28;20499;-62
2023/12/30 06:03:48;;;;;;;2.50;0.70;;;7.40;99.90;;;;;;5095632;28;20468;-64
2023/12/30 06:06:15;;;;;;;1.00;0.60;;;7.40;99.90;;;;;;5094830;28;20450;-63
2023/12/30 06:08:46;;;;;;;1.17;0.70;;;7.40;99.90;;;;;;5093544;28;20517;-64
2023/12/30 06:11:14;;;;;;;2.90;1.10;;;7.40;99.90;;;;;;5089410;28;20448;-64
2023/12/30 06:13:41;;;;;;;2.50;0.90;;;7.30;99.90;;;;;;5081330;28;20540;-64
2023/12/30 06:16:10;;;;;;;1.10;0.73;;;7.30;99.90;;;;;;5079595;28;20448;-65
2023/12/30 06:18:37;;;;;;;1.63;0.80;;;7.20;99.90;;;;;;5079145;28;20436;-64
2023/12/30 06:21:04;;;;;;;1.37;0.93;;;7.20;99.90;;;;;;5082124;28;20441;-64
2023/12/30 06:23:32;;;;;;;0.90;0.60;;;7.20;99.90;;;;;;5082414;28;20449;-64
2023/12/30 06:26:01;;;;;;;2.23;0.80;;;7.20;99.90;;;;;;5082058;28;20470;-65
2023/12/30 06:28:28;;;;;;;1.00;0.77;;;7.20;99.90;;;;;;5082121;28;20481;-63
2023/12/30 06:30:55;;;;;;;3.17;0.80;;;7.20;99.90;;;;;;5085670;28;20450;-64
2023/12/30 06:33:23;;;;;;;1.00;0.70;;;7.10;99.90;;;;;;5079955;28;20442;-64
2023/12/30 06:35:51;;;;;;;1.00;0.80;;;7.10;99.90;;;;;;5079515;28;20560;-65
2023/12/30 06:38:18;;;;;;;0.80;0.60;;;7.10;99.90;;;;;;5079445;28;20820;-63
2023/12/30 06:40:46;;;;;;;2.40;0.83;;;7.00;99.90;;;;;;5078218;28;20575;-64
2023/12/30 06:43:14;;;;;;;2.77;0.90;;;7.00;99.90;;;;;;5078361;28;20462;-64
2023/12/30 06:45:41;;;;;;;1.87;0.70;;;7.00;99.90;;;;;;5078683;28;20467;-64
2023/12/30 06:48:08;;;;;;;1.17;0.80;;;7.00;99.90;;;;;;5078902;28;20508;-63
2023/12/30 06:50:35;;;;;;;1.03;0.70;;;7.00;99.90;;;;;;5078889;28;20541;-64
2023/12/30 06:53:02;;;;;;;1.00;0.60;;;7.00;99.90;;;;;;5078862;28;20480;-64
2023/12/30 06:55:29;;;;;;;6.93;0.90;;;7.00;99.90;;;;;;5078910;28;20519;-64
2023/12/30 06:57:56;;;;;;;1.47;0.90;;;6.90;99.90;;;;;;5079240;28;20519;-65
2023/12/30 07:00:24;;;;;;;0.90;0.70;;;6.90;99.90;;;;;;5079131;28;20464;-64
2023/12/30 07:02:51;;;;;;;2.50;1.00;;;6.90;99.90;;;;;;5078962;28;20452;-63
2023/12/30 07:05:18;;;;;;;1.13;0.70;;;6.90;99.90;;;;;;5078953;28;20464;-65
2023/12/30 07:07:45;;;;;;;1.60;0.70;;;6.90;99.90;;;;;;5079094;28;20538;-65
2023/12/30 07:10:12;;;;;;;1.73;0.97;;;6.90;99.90;;;;;;5081247;28;20512;-64
2023/12/30 07:12:39;;;;;;;1.27;0.60;;;6.90;99.90;;;;;;5083303;28;20457;-64
2023/12/30 07:15:07;;;;;;;1.10;0.73;;;6.90;99.90;;;;;;5084573;28;20547;-65
2023/12/30 07:17:37;;;;;;;5.00;1.30;;;6.80;99.90;;;;;;5084653;28;20454;-63
2023/12/30 07:20:05;;;;;;;3.70;1.00;;;6.80;99.90;;;;;;5083767;28;20435;-63
2023/12/30 07:22:31;;;;;;;1.70;1.10;;;6.80;99.90;;;;;;5084107;28;20464;-63
2023/12/30 07:24:59;;;;;;;2.60;1.23;;;6.80;99.90;;;;;;5084334;28;20826;-65
2023/12/30 07:27:26;;;;;;;4.53;1.13;;;6.90;99.90;;;;;;5084024;28;20479;-63
2023/12/30 07:29:53;;;;;;;1.83;1.00;;;6.80;99.90;;;;;;5080959;28;21028;-65
2023/12/30 07:32:19;;;;;;;3.43;1.07;;;6.80;99.90;;;;;;5081020;28;20424;-64
2023/12/30 07:34:48;;;;;;;2.33;1.00;;;6.80;99.90;;;;;;5080516;28;20488;-64
2023/12/30 07:37:14;;;;;;;1.87;1.00;;;6.80;99.90;;;;;;5080829;28;20537;-65
2023/12/30 07:39:41;;;;;;;4.20;0.70;;;6.80;99.90;;;;;;5081126;28;20545;-65
2023/12/30 07:42:08;;;;;;;3.17;0.80;;;6.80;99.90;;;;;;5079951;28;20511;-64
2023/12/30 07:44:37;;;;;;;1.57;1.07;;;6.80;99.90;;;;;;5078215;28;20448;-64
2023/12/30 07:47:05;;;;;;;1.67;0.90;;;6.80;99.90;;;;;;5078032;28;20926;-65
2023/12/30 07:49:32;;;;;;;4.63;1.23;;;6.80;99.90;;;;;;5077736;28;20545;-64
2023/12/30 07:52:00;;;;;;;1.00;0.77;;;6.80;99.90;;;;;;5077960;28;20556;-64
2023/12/30 07:54:27;;;;;;;2.70;1.00;;;6.80;99.90;;;;;;5077733;28;20445;-65
2023/12/30 07:56:54;;;;;;;1.20;0.80;;;6.90;99.90;;;;;;5077087;28;20925;-64
2023/12/30 07:59:21;;;;;;;2.23;0.97;;;6.80;99.90;;;;;;5077143;28;20543;-64
2023/12/30 08:01:48;;;;;;;3.10;0.97;;;6.90;99.90;;;;;;5076916;28;20586;-64
2023/12/30 08:04:15;;;;;;;4.37;1.27;;;6.80;99.90;;;;;;5076663;28;20523;-64
2023/12/30 08:06:42;;;;;;;4.70;1.10;;;6.80;99.90;;;;;;5076822;28;20552;-65
2023/12/30 08:09:11;;;;;;;1.97;1.10;;;6.80;99.90;;;;;;5076423;28;20578;-65
2023/12/30 08:11:38;;;;;;;1.30;0.90;;;6.80;99.90;;;;;;5076507;28;20964;-65
2023/12/30 08:14:05;;;;;;;1.30;0.90;;;6.80;99.90;;;;;;5076504;28;20523;-64
2023/12/30 08:16:33;;;;;;;3.53;1.53;;;6.70;99.90;;;;;;5076322;28;20577;-65
2023/12/30 08:19:00;;;;;;;3.30;0.93;;;6.80;99.90;;;;;;5076923;28;20491;-64
2023/12/30 08:21:27;;;;;;;2.90;1.00;;;6.80;99.90;;;;;;5076417;28;20497;-64
2023/12/30 08:23:56;;;;;;;2.40;0.73;;;6.80;99.90;;;;;;5076432;28;20537;-64
2023/12/30 08:26:24;;;;;;;2.60;1.10;;;6.80;99.90;;;;;;5076358;28;20498;-64
2023/12/30 08:28:52;;;;;;;1.80;0.93;;;6.80;99.90;;;;;;5076918;28;20522;-66
2023/12/30 08:31:19;;;;;;;1.77;1.00;;;6.80;99.90;;;;;;5080919;28;20471;-65
2023/12/30 08:33:46;;;;;;;6.10;0.90;;;6.70;99.90;;;;;;5078253;28;20455;-65
2023/12/30 08:36:13;;;;;;;0.90;0.80;;;6.80;99.90;;;;;;5075958;28;20476;-64
2023/12/30 08:38:40;;;;;;;5.93;1.13;;;6.70;99.90;;;;;;5076227;28;20517;-64
2023/12/30 08:41:10;;;;;;;2.63;0.90;;;6.70;99.90;;;;;;5074898;28;20528;-64
2023/12/30 08:43:38;;;;;;;1.40;0.93;;;6.70;99.90;;;;;;5076093;28;20509;-64
2023/12/30 08:46:05;;;;;;;2.23;0.90;;;6.70;99.90;;;;;;5076041;28;20445;-64
2023/12/30 08:48:32;;;;;;;5.00;1.20;;;6.80;99.90;;;;;;5075954;28;20551;-63
2023/12/30 08:50:58;;;;;;;2.60;0.80;;;6.90;99.90;;;;;;5075658;28;20457;-64
2023/12/30 08:53:36;;;;;;;7.33;0.93;;;6.90;99.90;;;;;;5075747;28;20495;-65
2023/12/30 08:56:03;;;;;;;2.53;0.70;;;6.90;99.90;;;;;;5075922;28;20452;-64
2023/12/30 08:58:30;;;;;;;3.83;1.33;;;7.00;99.90;;;;;;5075833;28;20608;-64
2023/12/30 09:00:58;;;;;;;2.20;1.17;;;7.00;99.90;;;;;;5075648;28;20521;-65
2023/12/30 09:03:26;;;;;;;1.97;0.90;;;7.10;99.90;;;;;;5076759;28;20472;-64
2023/12/30 09:05:53;;;;;;;4.50;1.33;;;7.10;99.90;;;;;;5076261;28;20461;-66
2023/12/30 09:08:20;;;;;;;3.40;1.93;;;7.10;99.90;;;;;;5076772;28;20548;-66
2023/12/30 09:10:47;;;;;;;16.17;1.80;;;7.20;99.90;;;;;;5078839;28;20473;-66
2023/12/30 09:13:14;;;;;;;8.40;1.07;;;7.20;99.90;;;;;;5079405;28;20522;-65
2023/12/30 09:15:40;;;;;;;1.50;0.83;;;7.30;99.90;;;;;;5078700;28;20488;-64
2023/12/30 09:18:09;;;;;;;1.93;0.80;;;7.30;99.90;;;;;;5078640;28;20510;-66
2023/12/30 09:20:35;;;;;;;3.70;1.20;;;7.30;99.90;;;;;;5079294;28;20918;-64
2023/12/30 09:23:02;;;;;;;3.00;0.80;;;7.30;99.90;;;;;;5081384;28;20496;-65
2023/12/30 09:25:32;;;;;;;5.70;1.17;;;7.40;99.90;;;;;;5081635;28;20485;-64
2023/12/30 09:27:59;;;;;;;2.50;1.13;;;7.40;99.90;;;;;;5079679;28;20468;-65
2023/12/30 09:30:28;;;;;;;4.13;1.23;;;7.40;99.90;;;;;;5076262;28;20814;-65
2023/12/30 09:32:57;;;;;;;5.17;1.43;;;7.40;99.90;;;;;;5075621;28;21016;-65
2023/12/30 09:35:25;;;;;;;9.03;1.67;;;7.40;99.90;;;;;;5075077;28;20488;-63
2023/12/30 09:37:52;;;;;;;5.03;1.50;;;7.50;99.90;;;;;;5075264;28;20472;-66
2023/12/30 09:40:21;;;;;;;6.17;1.27;;;7.50;99.90;;;;;;5075167;28;20527;-65
2023/12/30 09:42:51;;;;;;;5.70;1.80;;;7.50;99.90;;;;;;5075290;28;20837;-63
2023/12/30 09:45:19;;;;;;;2.60;0.80;;;7.50;99.90;;;;;;5075115;28;20442;-63
2023/12/30 09:47:46;;;;;;;3.53;1.63;;;7.50;99.90;;;;;;5074676;28;20988;-64
2023/12/30 09:50:13;;;;;;;7.13;1.80;;;7.50;99.90;;;;;;5075375;28;20481;-66
2023/12/30 09:52:41;;;;;;;3.70;1.80;;;7.50;99.90;;;;;;5075797;28;20862;-66
2023/12/30 09:55:09;;;;;;;4.30;1.00;;;7.50;99.90;;;;;;5075414;28;20544;-65
2023/12/30 09:57:36;;;;;;;3.20;1.00;;;7.50;99.90;;;;;;5076714;28;20492;-65
2023/12/30 10:00:05;;;;;;;5.40;1.87;;;7.50;99.90;;;;;;5078352;28;20485;-64
2023/12/30 10:02:33;;;;;;;7.13;1.53;;;7.50;99.90;;;;;;5078232;28;20502;-64
2023/12/30 10:05:00;;;;;;;4.93;1.40;;;7.50;99.90;;;;;;5078218;28;20419;-65
2023/12/30 10:07:31;;;;;;;4.77;1.90;;;7.50;99.90;;;;;;5075822;28;21000;-66
2023/12/30 10:09:59;;;;;;;1.53;1.20;;;7.50;99.90;;;;;;5075669;28;20500;-65
2023/12/30 10:12:26;;;;;;;18.73;2.03;;;7.60;99.90;;;;;;5075188;28;20549;-65
2023/12/30 10:14:53;;;;;;;2.70;1.07;;;7.60;99.90;;;;;;5075834;28;20862;-65
2023/12/30 10:17:20;;;;;;;10.60;1.50;;;7.60;99.90;;;;;;5077950;28;20442;-65
2023/12/30 10:19:47;;;;;;;3.83;1.77;;;7.70;99.90;;;;;;5076122;28;20442;-65
2023/12/30 10:22:14;;;;;;;2.27;1.77;;;7.70;99.90;;;;;;5074783;28;20447;-65
2023/12/30 10:24:41;;;;;;;6.20;1.00;;;7.70;99.90;;;;;;5074787;28;20484;-64
2023/12/30 10:27:10;;;;;;;1.60;1.10;;;7.80;99.90;;;;;;5074696;28;20559;-64
2023/12/30 10:29:37;;;;;;;3.17;1.43;;;7.90;99.90;;;;;;5075314;28;20801;-65
2023/12/30 10:32:08;;;;;;;3.43;0.90;;;7.80;99.90;;;;;;5075164;28;20531;-65
2023/12/30 10:34:39;;;;;;;5.33;1.70;;;8.00;99.90;;;;;;5075412;28;20435;-65
2023/12/30 10:37:09;;;;;;;2.20;1.40;;;8.00;99.90;;;;;;5075261;28;20445;-65
2023/12/30 10:39:39;;;;;;;2.13;1.57;;;8.00;99.90;;;;;;5075524;28;20458;-64
2023/12/30 10:42:10;;;;;;;18.83;4.80;;;8.10;99.90;;;;;;5075364;28;20497;-64
2023/12/30 10:44:37;;;;;;;8.60;4.07;;;8.10;99.90;;;;;;5075232;28;20515;-64
2023/12/30 10:47:05;;;;;;;4.50;2.30;;;8.10;99.90;;;;;;5077075;28;20549;-64
2023/12/30 10:49:32;;;;;;;2.17;1.03;;;8.10;99.90;;;;;;5077864;28;20524;-65
2023/12/30 10:52:07;;;;;;;5.60;1.10;;;8.20;99.90;;;;;;5077874;28;20441;-64
2023/12/30 10:54:41;;;;;;;5.23;2.23;;;8.20;99.90;;;;;;5077924;28;20477;-65
2023/12/30 10:57:18;;;;;;;3.70;1.37;;;8.20;99.90;;;;;;5075066;28;20487;-65
2023/12/30 10:59:50;;;;;;;3.87;1.43;;;8.20;99.90;;;;;;5074627;28;20483;-64
2023/12/30 11:02:18;;;;;;;4.73;1.53;;;8.20;99.90;;;;;;5074475;28;20928;-64
2023/12/30 11:04:46;;;;;;;7.33;2.67;;;8.20;99.90;;;;;;5075937;28;20743;-65
2023/12/30 11:07:16;;;;;;;4.17;1.43;;;8.30;99.90;;;;;;5078060;28;20540;-64
2023/12/30 11:09:43;;;;;;;3.20;1.20;;;8.30;99.90;;;;;;5078313;28;20872;-63
2023/12/30 11:12:12;;;;;;;1.87;1.60;;;8.30;99.90;;;;;;5078154;28;20920;-63
2023/12/30 11:14:38;;;;;;;4.50;1.33;;;8.30;99.90;;;;;;5077707;28;21000;-63
2023/12/30 11:17:06;;;;;;;2.17;1.33;;;8.30;99.90;;;;;;5077535;28;20529;-67
2023/12/30 11:19:35;;;;;;;4.27;1.80;;;8.30;99.90;;;;;;5078217;28;20815;-64
2023/12/30 11:22:05;;;;;;;2.10;1.20;;;8.30;99.90;;;;;;5078459;28;20446;-64
2023/12/30 11:24:32;;;;;;;6.27;1.47;;;8.30;99.90;;;;;;5078199;28;20469;-65
2023/12/30 11:26:59;;;;;;;2.90;1.33;;;8.30;99.90;;;;;;5080400;28;20450;-64
2023/12/30 11:29:28;;;;;;;5.70;1.80;;;8.30;99.90;;;;;;5079859;28;20527;-64
2023/12/30 11:31:56;;;;;;;1.50;1.30;;;8.40;99.90;;;;;;5080685;28;20481;-62
2023/12/30 11:34:24;;;;;;;5.77;1.53;;;8.40;99.90;;;;;;5083179;28;20481;-62
2023/12/30 11:36:52;;;;;;;2.60;1.10;;;8.40;99.90;;;;;;5082651;28;20545;-63
2023/12/30 11:39:26;;;;;;;2.60;1.13;;;8.40;99.90;;;;;;5082884;28;20554;-65
2023/12/30 11:41:54;;;;;;;4.33;1.77;;;8.40;99.90;;;;;;5082199;28;20469;-63
2023/12/30 11:44:21;;;;;;;7.23;1.33;;;8.30;99.90;;;;;;5081718;28;20853;-63
2023/12/30 11:46:49;;;;;;;2.93;1.20;;;8.40;99.90;;;;;;5081814;28;20487;-63
2023/12/30 11:49:20;;;;;;;4.33;1.63;;;8.40;99.90;;;;;;5081532;28;20588;-64
2023/12/30 11:51:47;;;;;;;4.87;1.50;;;8.40;99.90;;;;;;5082517;28;20901;-64
2023/12/30 11:54:15;;;;;;;2.40;1.40;;;8.40;99.90;;;;;;5082727;28;20558;-63
2023/12/30 11:56:42;;;;;;;4.63;1.20;;;8.40;99.90;;;;;;5082557;28;20475;-64
2023/12/30 11:59:09;;;;;;;2.53;1.50;;;8.50;99.90;;;;;;5081200;28;20971;-64
2023/12/30 12:01:36;;;;;;;8.07;2.90;;;8.50;99.90;;;;;;5079759;28;20763;-63
2023/12/30 12:04:05;;;;;;;2.50;1.43;;;8.60;99.90;;;;;;5077037;28;20544;-64
2023/12/30 12:06:32;;;;;;;5.33;1.90;;;8.60;99.90;;;;;;5076973;28;20476;-65
2023/12/30 12:09:04;;;;;;;7.17;2.10;;;8.60;99.90;;;;;;5077445;28;20469;-63
2023/12/30 12:11:31;;;;;;;5.73;2.03;;;8.60;99.90;;;;;;5077038;28;20567;-61
2023/12/30 12:13:58;;;;;;;6.63;2.23;;;8.60;99.90;;;;;;5077063;28;20477;-64
2023/12/30 12:16:27;;;;;;;2.60;1.50;;;8.60;99.90;;;;;;5076790;28;20422;-65
2023/12/30 12:18:55;;;;;;;4.13;1.60;;;8.60;99.90;;;;;;5076854;28;20474;-64
2023/12/30 12:21:26;;;;;;;7.27;1.93;;;8.60;99.90;;;;;;5076424;28;20420;-64
2023/12/30 12:23:55;;;;;;;7.27;2.03;;;8.60;99.90;;;;;;5076642;28;20441;-64
2023/12/30 12:26:23;;;;;;;6.67;1.93;;;8.60;99.90;;;;;;5076264;28;20466;-64
2023/12/30 12:28:53;;;;;;;1.97;1.40;;;8.60;99.90;;;;;;5076420;28;20537;-64
2023/12/30 12:31:19;;;;;;;8.50;1.60;;;8.60;99.90;;;;;;5076074;28;20482;-65
2023/12/30 12:33:46;;;;;;;6.30;1.87;;;8.60;99.90;;;;;;5076465;28;20536;-64
2023/12/30 12:36:13;;;;;;;2.13;1.13;;;8.70;99.90;;;;;;5076293;28;20820;-64
2023/12/30 12:38:42;;;;;;;9.60;1.50;;;8.60;99.90;;;;;;5076300;28;20445;-65
2023/12/30 12:41:08;;;;;;;7.90;2.90;;;8.70;99.90;;;;;;5075979;28;20519;-64
2023/12/30 12:43:35;;;;;;;2.73;1.47;;;8.70;99.90;;;;;;5075929;28;20450;-64
2023/12/30 12:46:03;;;;;;;9.20;1.93;;;8.60;99.90;;;;;;5076241;28;20478;-63
2023/12/30 12:48:30;;;;;;;4.70;2.20;;;8.60;99.90;;;;;;5076103;28;20445;-64
2023/12/30 12:50:57;;;;;;;2.60;1.27;;;8.60;99.90;;;;;;5076024;28;20552;-64
2023/12/30 12:53:24;;;;;;;4.77;1.90;;;8.60;99.90;;;;;;5076135;28;20449;-64
2023/12/30 12:55:53;;;;;;;2.70;1.50;;;8.70;99.90;;;;;;5077892;28;20503;-64
2023/12/30 12:58:20;;;;;;;5.30;1.70;;;8.70;99.90;;;;;;5078292;28;20544;-65
2023/12/30 13:00:47;;;;;;;9.17;1.80;;;8.70;99.90;;;;;;5077776;28;20557;-62